Somis, California
Current Conditions -  °F | °C
As of 4:55 AM on Thursday 23 Oct 2014 (Local Time) from KCMA Reporting Station
Clear Clear  
Wind Chill: 57°   Ceiling: Unl
Heat Index: 57°   Visibility: 10mi
Dew Point: 47°   Wind: 5mph
Humidity: 69%   Direction: 60°ENE
Pressure: 29.93"   Gusts: NA
Location:  34.26°N, 119°W
Report Text: KCMA 231155Z AUTO 06004KT 10SM CLR 14/08 A2993 RMK AO2 SLP144 T01390083 10178 20128 55004
Loading
Personal Weather Stations






























Interactive Weather Map
Tropical Storm Tracking
New forecast layout! Learn more

10-Day Weather Forecast

Advertisements
Track Severe Weather on mobile